Weather at Butter Valley Golf Port Airport

Public forecast

Using degrees Fahrenheit for public forecast. Weather courtesy of forecast.io.

Closest aviation weather report (METAR) to Butter Valley Golf Port Airport

Closest report is Quakertown Airport, 8.6 nm (16.0 km) ENE. Retrieved 2021/06/12 20:35 UTC (25 minutes ago):

KUKT 122035Z AUTO 09004KT 10SM FEW029 OVC036 22/17 A2986 RMK A01

Closest aviation forecast (TAF) to Butter Valley Golf Port Airport

Closest forecast is Lehigh Valley International Airport, 16.2 nm (30.0 km) NNE. Retrieved 2021/06/12 18:24 UTC (3 hours ago):

TAF KABE 121721Z 1218/1318 VRB03KT P6SM BKN040 FM130500 VRB03KT P6SM BKN030